PAMD METAR and TAF weather

Enter ICAO airport designator
Station Type Date Time Source
PAMD METAR 2021/05/15 00:51 UTC NOAA

PAMD 150051Z AUTO 10015KT 10SM OVC025 07/06 A2991 RMK AO2 RAE13 SLP116 P0001 T00670056


Station Type Date Time Source
PAMD Decoded METAR 2021/05/15 00:51 UTC NOAA

Middleton Island, Middleton Island Airport, AK, United States (PAMD) 59-26N 146-18W 14M
May 14, 2021 - 08:51 PM EDT / 2021.05.15 0051 UTC
Wind: from the E (100 degrees) at 17 MPH (15 KT):0
Visibility: 10 mile(s):0
Sky conditions: overcast
Precipitation last hour: 0.01 inches
Temperature: 44.1 F (6.7 C)
Dew Point: 42.1 F (5.6 C)
Relative Humidity: 92%
Pressure (altimeter): 29.91 in. Hg (1012 hPa)
ob: PAMD 150051Z AUTO 10015KT 10SM OVC025 07/06 A2991 RMK AO2 RAE13 SLP116 P0001 T00670056
cycle: 1

Station Type Date Time Source
PAMD TAF UTC NOAA

Error!

Example: see airport list